sensor_id;sensor_type;location;lat;lon;timestamp;pressure;altitude;pressure_sealevel;temperature;humidity
67099;BME280;54288;53.046;5.668;2022-10-16T00:01:09;100946.13;;;13.21;94.98
67099;BME280;54288;53.046;5.668;2022-10-16T00:03:37;100950.34;;;13.26;94.56
67099;BME280;54288;53.046;5.668;2022-10-16T00:06:04;100936.38;;;13.24;94.88
67099;BME280;54288;53.046;5.668;2022-10-16T00:08:30;100940.06;;;13.19;95.11
67099;BME280;54288;53.046;5.668;2022-10-16T00:11:01;100923.50;;;13.15;95.05
67099;BME280;54288;53.046;5.668;2022-10-16T00:13:27;100926.81;;;13.22;94.42
67099;BME280;54288;53.046;5.668;2022-10-16T00:15:55;100907.69;;;13.17;94.25
67099;BME280;54288;53.046;5.668;2022-10-16T00:18:21;100921.31;;;13.29;93.81
67099;BME280;54288;53.046;5.668;2022-10-16T00:20:47;100929.94;;;13.34;93.98
67099;BME280;54288;53.046;5.668;2022-10-16T00:23:13;100936.03;;;13.36;93.58
67099;BME280;54288;53.046;5.668;2022-10-16T00:25:38;100912.41;;;13.35;93.54
67099;BME280;54288;53.046;5.668;2022-10-16T00:28:04;100921.88;;;13.39;93.63
67099;BME280;54288;53.046;5.668;2022-10-16T00:30:30;100920.19;;;13.38;92.96
67099;BME280;54288;53.046;5.668;2022-10-16T00:32:56;100907.22;;;13.32;92.61
67099;BME280;54288;53.046;5.668;2022-10-16T00:35:22;100928.75;;;13.44;92.80
67099;BME280;54288;53.046;5.668;2022-10-16T00:37:48;100937.41;;;13.48;92.71
67099;BME280;54288;53.046;5.668;2022-10-16T00:40:13;100918.47;;;13.37;92.71
67099;BME280;54288;53.046;5.668;2022-10-16T00:42:39;100917.50;;;13.39;92.72
67099;BME280;54288;53.046;5.668;2022-10-16T00:45:05;100924.41;;;13.43;92.88
67099;BME280;54288;53.046;5.668;2022-10-16T00:47:42;100913.00;;;13.43;92.30
67099;BME280;54288;53.046;5.668;2022-10-16T00:50:29;100923.22;;;13.53;92.02
67099;BME280;54288;53.046;5.668;2022-10-16T00:52:56;100913.84;;;13.45;92.26
67099;BME280;54288;53.046;5.668;2022-10-16T00:55:24;100910.41;;;13.41;91.90
67099;BME280;54288;53.046;5.668;2022-10-16T00:57:51;100926.09;;;13.46;92.63
67099;BME280;54288;53.046;5.668;2022-10-16T01:00:24;100928.72;;;13.46;92.20
67099;BME280;54288;53.046;5.668;2022-10-16T01:02:57;100922.44;;;13.50;91.64
67099;BME280;54288;53.046;5.668;2022-10-16T01:05:50;100930.28;;;13.51;91.33
67099;BME280;54288;53.046;5.668;2022-10-16T01:08:27;100925.13;;;13.48;91.34
67099;BME280;54288;53.046;5.668;2022-10-16T01:11:26;100917.97;;;13.53;90.93
67099;BME280;54288;53.046;5.668;2022-10-16T01:14:00;100927.66;;;13.51;91.05
67099;BME280;54288;53.046;5.668;2022-10-16T01:16:32;100930.25;;;13.53;90.80
67099;BME280;54288;53.046;5.668;2022-10-16T01:19:25;100934.59;;;13.54;90.54
67099;BME280;54288;53.046;5.668;2022-10-16T01:21:53;100920.44;;;13.58;89.80
67099;BME280;54288;53.046;5.668;2022-10-16T01:24:39;100922.16;;;13.59;89.47
67099;BME280;54288;53.046;5.668;2022-10-16T01:30:07;100936.03;;;13.64;89.75
67099;BME280;54288;53.046;5.668;2022-10-16T01:32:59;100931.28;;;13.47;90.51
67099;BME280;54288;53.046;5.668;2022-10-16T01:35:35;100934.19;;;13.38;92.34
67099;BME280;54288;53.046;5.668;2022-10-16T01:38:10;100943.84;;;13.38;92.31
67099;BME280;54288;53.046;5.668;2022-10-16T01:40:42;100936.09;;;13.33;92.07
67099;BME280;54288;53.046;5.668;2022-10-16T01:43:19;100950.00;;;13.38;92.08
67099;BME280;54288;53.046;5.668;2022-10-16T01:45:47;100950.81;;;13.39;91.97
67099;BME280;54288;53.046;5.668;2022-10-16T01:48:17;100958.72;;;13.39;92.40
67099;BME280;54288;53.046;5.668;2022-10-16T01:50:47;100957.88;;;13.38;92.14
67099;BME280;54288;53.046;5.668;2022-10-16T01:53:17;100940.50;;;13.33;91.38
67099;BME280;54288;53.046;5.668;2022-10-16T01:55:46;100947.31;;;13.40;91.63
67099;BME280;54288;53.046;5.668;2022-10-16T01:58:14;100945.69;;;13.36;91.95
67099;BME280;54288;53.046;5.668;2022-10-16T02:00:44;100950.13;;;13.34;91.91
67099;BME280;54288;53.046;5.668;2022-10-16T02:03:13;100955.41;;;13.34;91.95
67099;BME280;54288;53.046;5.668;2022-10-16T02:05:46;100952.94;;;13.28;92.39
67099;BME280;54288;53.046;5.668;2022-10-16T02:08:12;100952.06;;;13.27;92.32
67099;BME280;54288;53.046;5.668;2022-10-16T02:10:39;100946.22;;;13.18;92.03
67099;BME280;54288;53.046;5.668;2022-10-16T02:13:39;100950.41;;;13.25;91.75
67099;BME280;54288;53.046;5.668;2022-10-16T02:16:10;100951.50;;;13.18;91.57
67099;BME280;54288;53.046;5.668;2022-10-16T02:18:36;100941.22;;;13.09;92.03
67099;BME280;54288;53.046;5.668;2022-10-16T02:21:19;100931.66;;;13.06;91.58
67099;BME280;54288;53.046;5.668;2022-10-16T02:23:53;100946.31;;;13.15;92.02
67099;BME280;54288;53.046;5.668;2022-10-16T02:26:45;100936.94;;;13.05;91.84
67099;BME280;54288;53.046;5.668;2022-10-16T02:29:18;100931.00;;;13.00;91.64
67099;BME280;54288;53.046;5.668;2022-10-16T02:31:51;100939.06;;;12.92;92.26
67099;BME280;54288;53.046;5.668;2022-10-16T02:34:21;100931.44;;;12.82;92.02
67099;BME280;54288;53.046;5.668;2022-10-16T02:36:50;100939.28;;;12.85;92.26
67099;BME280;54288;53.046;5.668;2022-10-16T02:39:19;100943.78;;;12.80;92.76
67099;BME280;54288;53.046;5.668;2022-10-16T02:41:45;100960.94;;;12.93;92.17
67099;BME280;54288;53.046;5.668;2022-10-16T02:44:11;100932.97;;;12.90;91.37
67099;BME280;54288;53.046;5.668;2022-10-16T02:46:37;100942.50;;;12.96;91.21
67099;BME280;54288;53.046;5.668;2022-10-16T02:49:02;100947.53;;;13.03;90.70
67099;BME280;54288;53.046;5.668;2022-10-16T02:51:28;100948.38;;;13.04;90.80
67099;BME280;54288;53.046;5.668;2022-10-16T02:53:54;100936.88;;;13.08;90.63
67099;BME280;54288;53.046;5.668;2022-10-16T02:56:20;100917.16;;;12.92;90.21
67099;BME280;54288;53.046;5.668;2022-10-16T02:58:46;100918.88;;;12.93;90.59
67099;BME280;54288;53.046;5.668;2022-10-16T03:01:11;100952.63;;;13.09;90.56
67099;BME280;54288;53.046;5.668;2022-10-16T03:03:38;100936.84;;;13.09;90.26
67099;BME280;54288;53.046;5.668;2022-10-16T03:06:04;100957.13;;;13.04;90.81
67099;BME280;54288;53.046;5.668;2022-10-16T03:08:29;100942.63;;;12.90;91.18
67099;BME280;54288;53.046;5.668;2022-10-16T03:10:55;100955.63;;;12.96;90.92
67099;BME280;54288;53.046;5.668;2022-10-16T03:13:21;100955.81;;;12.88;91.92
67099;BME280;54288;53.046;5.668;2022-10-16T03:15:47;100957.66;;;12.85;91.99
67099;BME280;54288;53.046;5.668;2022-10-16T03:18:12;100961.03;;;12.90;91.67
67099;BME280;54288;53.046;5.668;2022-10-16T03:20:38;100961.94;;;12.89;92.06
67099;BME280;54288;53.046;5.668;2022-10-16T03:23:04;100962.81;;;12.88;91.96
67099;BME280;54288;53.046;5.668;2022-10-16T03:25:30;100972.25;;;12.96;92.18
67099;BME280;54288;53.046;5.668;2022-10-16T03:27:55;100968.78;;;12.96;92.14
67099;BME280;54288;53.046;5.668;2022-10-16T03:30:21;100960.31;;;12.83;92.11
67099;BME280;54288;53.046;5.668;2022-10-16T03:32:46;100963.53;;;12.96;92.27
67099;BME280;54288;53.046;5.668;2022-10-16T03:35:12;100976.50;;;13.02;92.23
67099;BME280;54288;53.046;5.668;2022-10-16T03:37:38;100959.19;;;12.93;92.40
67099;BME280;54288;53.046;5.668;2022-10-16T03:40:04;100967.63;;;13.06;92.41
67099;BME280;54288;53.046;5.668;2022-10-16T03:42:30;100971.00;;;13.11;93.14
67099;BME280;54288;53.046;5.668;2022-10-16T03:44:56;100986.47;;;13.20;92.84
67099;BME280;54288;53.046;5.668;2022-10-16T03:47:22;100972.69;;;13.12;93.09
67099;BME280;54288;53.046;5.668;2022-10-16T03:49:49;100990.97;;;13.16;93.33
67099;BME280;54288;53.046;5.668;2022-10-16T03:52:15;100989.28;;;13.14;93.70
67099;BME280;54288;53.046;5.668;2022-10-16T03:54:41;100982.34;;;13.11;94.05
67099;BME280;54288;53.046;5.668;2022-10-16T03:57:07;100991.94;;;13.12;94.24
67099;BME280;54288;53.046;5.668;2022-10-16T03:59:32;100970.25;;;13.06;94.07
67099;BME280;54288;53.046;5.668;2022-10-16T04:01:58;100992.72;;;13.16;93.81
67099;BME280;54288;53.046;5.668;2022-10-16T04:04:24;100984.19;;;13.08;93.81
67099;BME280;54288;53.046;5.668;2022-10-16T04:06:50;101004.09;;;13.18;94.17
67099;BME280;54288;53.046;5.668;2022-10-16T04:09:16;100999.09;;;13.07;94.87
67099;BME280;54288;53.046;5.668;2022-10-16T04:11:42;101000.88;;;13.07;95.28
67099;BME280;54288;53.046;5.668;2022-10-16T04:14:08;101014.66;;;13.15;95.40
67099;BME280;54288;53.046;5.668;2022-10-16T04:16:34;101008.94;;;13.01;95.48
67099;BME280;54288;53.046;5.668;2022-10-16T04:18:59;101023.69;;;13.06;95.48
67099;BME280;54288;53.046;5.668;2022-10-16T04:21:25;101018.44;;;13.05;95.11
67099;BME280;54288;53.046;5.668;2022-10-16T04:23:51;101007.34;;;12.95;95.13
67099;BME280;54288;53.046;5.668;2022-10-16T04:26:16;100987.34;;;12.88;95.26
67099;BME280;54288;53.046;5.668;2022-10-16T04:28:42;101000.44;;;12.91;96.20
67099;BME280;54288;53.046;5.668;2022-10-16T04:31:08;101004.03;;;12.87;96.92
67099;BME280;54288;53.046;5.668;2022-10-16T04:33:34;101017.13;;;12.89;97.76
67099;BME280;54288;53.046;5.668;2022-10-16T04:36:01;101005.22;;;12.76;98.22
67099;BME280;54288;53.046;5.668;2022-10-16T04:38:27;101004.38;;;12.75;98.11
67099;BME280;54288;53.046;5.668;2022-10-16T04:40:53;101013.19;;;12.73;97.80
67099;BME280;54288;53.046;5.668;2022-10-16T04:43:19;101026.06;;;12.82;97.09
67099;BME280;54288;53.046;5.668;2022-10-16T04:45:45;101020.81;;;12.82;96.83
67099;BME280;54288;53.046;5.668;2022-10-16T04:48:10;101002.81;;;12.68;96.78
67099;BME280;54288;53.046;5.668;2022-10-16T04:50:36;101011.28;;;12.79;97.35
67099;BME280;54288;53.046;5.668;2022-10-16T04:53:06;101015.72;;;12.76;97.49
67099;BME280;54288;53.046;5.668;2022-10-16T04:55:32;101031.25;;;12.85;97.71
67099;BME280;54288;53.046;5.668;2022-10-16T04:57:58;101039.84;;;12.91;97.96
67099;BME280;54288;53.046;5.668;2022-10-16T05:00:24;101038.91;;;12.94;97.92
67099;BME280;54288;53.046;5.668;2022-10-16T05:02:50;101044.16;;;12.94;97.77
67099;BME280;54288;53.046;5.668;2022-10-16T05:05:16;101058.19;;;12.93;97.61
67099;BME280;54288;53.046;5.668;2022-10-16T05:07:44;101061.63;;;12.96;97.79
67099;BME280;54288;53.046;5.668;2022-10-16T05:10:10;101058.25;;;12.91;97.31
67099;BME280;54288;53.046;5.668;2022-10-16T05:12:35;101040.97;;;12.83;97.88
67099;BME280;54288;53.046;5.668;2022-10-16T05:15:01;101055.56;;;12.93;98.08
67099;BME280;54288;53.046;5.668;2022-10-16T05:17:26;101065.19;;;12.94;97.77
67099;BME280;54288;53.046;5.668;2022-10-16T05:19:52;101062.56;;;12.94;97.83
67099;BME280;54288;53.046;5.668;2022-10-16T05:22:18;101067.81;;;12.94;98.11
67099;BME280;54288;53.046;5.668;2022-10-16T05:24:44;101074.22;;;12.84;98.21
67099;BME280;54288;53.046;5.668;2022-10-16T05:27:10;101069.94;;;12.80;98.50
67099;BME280;54288;53.046;5.668;2022-10-16T05:29:36;101066.66;;;12.72;98.77
67099;BME280;54288;53.046;5.668;2022-10-16T05:32:01;101072.06;;;12.66;98.62
67099;BME280;54288;53.046;5.668;2022-10-16T05:34:27;101060.06;;;12.56;98.91
67099;BME280;54288;53.046;5.668;2022-10-16T05:36:53;101063.44;;;12.61;98.97
67099;BME280;54288;53.046;5.668;2022-10-16T05:39:18;101082.41;;;12.72;98.83
67099;BME280;54288;53.046;5.668;2022-10-16T05:41:44;101070.25;;;12.68;98.66
67099;BME280;54288;53.046;5.668;2022-10-16T05:44:10;101067.03;;;12.57;98.89
67099;BME280;54288;53.046;5.668;2022-10-16T05:46:36;101084.50;;;12.58;98.98
67099;BME280;54288;53.046;5.668;2022-10-16T05:49:02;101079.19;;;12.61;99.09
67099;BME280;54288;53.046;5.668;2022-10-16T05:51:28;101085.19;;;12.66;98.96
67099;BME280;54288;53.046;5.668;2022-10-16T05:53:53;101073.78;;;12.67;99.00
67099;BME280;54288;53.046;5.668;2022-10-16T05:56:19;101065.22;;;12.59;98.92
67099;BME280;54288;53.046;5.668;2022-10-16T05:58:45;101073.78;;;12.67;99.20
67099;BME280;54288;53.046;5.668;2022-10-16T06:01:14;101081.47;;;12.74;99.33
67099;BME280;54288;53.046;5.668;2022-10-16T06:03:40;101086.66;;;12.77;98.98
67099;BME280;54288;53.046;5.668;2022-10-16T06:06:18;101093.00;;;12.69;99.14
67099;BME280;54288;53.046;5.668;2022-10-16T06:08:45;101110.06;;;12.86;98.56
67099;BME280;54288;53.046;5.668;2022-10-16T06:11:13;101071.00;;;12.73;98.60
67099;BME280;54288;53.046;5.668;2022-10-16T06:13:39;101103.97;;;12.84;98.56
67099;BME280;54288;53.046;5.668;2022-10-16T06:16:09;101079.72;;;12.73;98.55
67099;BME280;54288;53.046;5.668;2022-10-16T06:18:35;101091.69;;;12.86;98.58
67099;BME280;54288;53.046;5.668;2022-10-16T06:24:36;101110.16;;;12.82;98.37
67099;BME280;54288;53.046;5.668;2022-10-16T06:27:03;101110.91;;;12.87;98.54
67099;BME280;54288;53.046;5.668;2022-10-16T06:29:29;101106.56;;;12.86;97.96
67099;BME280;54288;53.046;5.668;2022-10-16T06:31:55;101120.50;;;12.89;97.28
67099;BME280;54288;53.046;5.668;2022-10-16T06:34:20;101123.25;;;12.85;97.50
67099;BME280;54288;53.046;5.668;2022-10-16T06:36:46;101112.06;;;12.77;98.10
67099;BME280;54288;53.046;5.668;2022-10-16T06:39:11;101108.84;;;12.66;98.69
67099;BME280;54288;53.046;5.668;2022-10-16T06:41:37;101127.09;;;12.72;98.91
67099;BME280;54288;53.046;5.668;2022-10-16T06:44:14;101118.47;;;12.67;99.07
67099;BME280;54288;53.046;5.668;2022-10-16T06:46:40;101159.25;;;12.81;98.96
67099;BME280;54288;53.046;5.668;2022-10-16T06:49:06;101142.00;;;12.70;99.28
67099;BME280;54288;53.046;5.668;2022-10-16T06:51:31;101165.28;;;12.86;99.75
67099;BME280;54288;53.046;5.668;2022-10-16T06:53:59;101168.22;;;12.73;99.58
67099;BME280;54288;53.046;5.668;2022-10-16T06:56:27;101168.00;;;12.82;99.74
67099;BME280;54288;53.046;5.668;2022-10-16T06:58:53;101179.34;;;12.84;100.00
67099;BME280;54288;53.046;5.668;2022-10-16T07:01:22;101158.72;;;12.67;100.00
67099;BME280;54288;53.046;5.668;2022-10-16T07:03:49;101162.41;;;12.59;100.00
67099;BME280;54288;53.046;5.668;2022-10-16T07:06:17;101188.69;;;12.59;100.00
67099;BME280;54288;53.046;5.668;2022-10-16T07:08:45;101192.19;;;12.59;100.00
67099;BME280;54288;53.046;5.668;2022-10-16T07:11:14;101212.88;;;12.74;100.00
67099;BME280;54288;53.046;5.668;2022-10-16T07:13:42;101194.00;;;12.57;100.00
67099;BME280;54288;53.046;5.668;2022-10-16T07:16:20;101206.94;;;12.65;100.00
67099;BME280;54288;53.046;5.668;2022-10-16T07:18:46;101184.34;;;12.58;100.00
67099;BME280;54288;53.046;5.668;2022-10-16T07:21:23;101203.22;;;12.75;100.00
67099;BME280;54288;53.046;5.668;2022-10-16T07:24:00;101224.72;;;12.90;100.00
67099;BME280;54288;53.046;5.668;2022-10-16T07:26:36;101211.78;;;12.83;100.00
67099;BME280;54288;53.046;5.668;2022-10-16T07:29:06;101214.22;;;12.90;100.00
67099;BME280;54288;53.046;5.668;2022-10-16T07:31:32;101252.34;;;13.11;100.00
67099;BME280;54288;53.046;5.668;2022-10-16T07:33:59;101232.41;;;13.01;100.00
67099;BME280;54288;53.046;5.668;2022-10-16T07:36:25;101236.78;;;13.00;100.00
67099;BME280;54288;53.046;5.668;2022-10-16T07:38:52;101253.06;;;13.16;100.00
67099;BME280;54288;53.046;5.668;2022-10-16T07:41:19;101260.22;;;13.11;100.00
67099;BME280;54288;53.046;5.668;2022-10-16T07:43:51;101261.94;;;13.12;100.00
67099;BME280;54288;53.046;5.668;2022-10-16T07:46:18;101276.69;;;13.17;100.00
67099;BME280;54288;53.046;5.668;2022-10-16T07:48:45;101269.13;;;13.04;100.00
67099;BME280;54288;53.046;5.668;2022-10-16T07:51:15;101273.47;;;13.06;100.00
67099;BME280;54288;53.046;5.668;2022-10-16T07:53:40;101274.38;;;13.04;100.00
67099;BME280;54288;53.046;5.668;2022-10-16T07:56:07;101300.41;;;13.16;100.00
67099;BME280;54288;53.046;5.668;2022-10-16T07:58:35;101297.75;;;13.16;100.00
67099;BME280;54288;53.046;5.668;2022-10-16T08:01:06;101297.91;;;13.10;100.00
67099;BME280;54288;53.046;5.668;2022-10-16T08:03:32;101285.44;;;13.19;100.00
67099;BME280;54288;53.046;5.668;2022-10-16T08:05:59;101285.03;;;13.34;100.00
67099;BME280;54288;53.046;5.668;2022-10-16T08:08:26;101310.81;;;13.55;99.38
67099;BME280;54288;53.046;5.668;2022-10-16T08:10:53;101297.53;;;13.93;99.12
67099;BME280;54288;53.046;5.668;2022-10-16T08:13:18;101280.78;;;14.28;96.07
67099;BME280;54288;53.046;5.668;2022-10-16T08:15:45;101296.00;;;14.49;95.10
67099;BME280;54288;53.046;5.668;2022-10-16T08:18:13;101299.78;;;14.39;95.05
67099;BME280;54288;53.046;5.668;2022-10-16T08:20:39;101311.19;;;14.39;95.73
67099;BME280;54288;53.046;5.668;2022-10-16T08:23:05;101325.13;;;14.44;95.65
67099;BME280;54288;53.046;5.668;2022-10-16T08:25:34;101326.56;;;14.54;95.17
67099;BME280;54288;53.046;5.668;2022-10-16T08:28:03;101324.25;;;14.44;95.22
67099;BME280;54288;53.046;5.668;2022-10-16T08:30:29;101327.03;;;14.68;95.14
67099;BME280;54288;53.046;5.668;2022-10-16T08:32:54;101330.66;;;14.64;94.42
67099;BME280;54288;53.046;5.668;2022-10-16T08:35:20;101331.91;;;14.82;93.21
67099;BME280;54288;53.046;5.668;2022-10-16T08:37:46;101347.28;;;14.95;92.90
67099;BME280;54288;53.046;5.668;2022-10-16T08:40:31;101351.34;;;15.07;92.92
67099;BME280;54288;53.046;5.668;2022-10-16T08:48:53;101344.84;;;15.46;89.82
67099;BME280;54288;53.046;5.668;2022-10-16T08:51:35;101353.47;;;15.51;88.53
67099;BME280;54288;53.046;5.668;2022-10-16T08:54:04;101365.75;;;15.52;89.05
67099;BME280;54288;53.046;5.668;2022-10-16T08:56:31;101375.91;;;15.64;89.01
67099;BME280;54288;53.046;5.668;2022-10-16T08:58:59;101368.34;;;15.53;87.75
67099;BME280;54288;53.046;5.668;2022-10-16T09:01:41;101397.66;;;15.72;87.28
67099;BME280;54288;53.046;5.668;2022-10-16T09:04:38;101393.19;;;15.74;86.75
67099;BME280;54288;53.046;5.668;2022-10-16T09:12:26;101410.38;;;15.87;86.31
67099;BME280;54288;53.046;5.668;2022-10-16T09:20:33;101430.00;;;15.78;86.82
67099;BME280;54288;53.046;5.668;2022-10-16T09:23:34;101437.25;;;15.99;86.55
67099;BME280;54288;53.046;5.668;2022-10-16T09:26:02;101435.31;;;16.29;84.98
67099;BME280;54288;53.046;5.668;2022-10-16T09:28:29;101436.97;;;16.33;84.07
67099;BME280;54288;53.046;5.668;2022-10-16T09:30:55;101437.16;;;16.27;84.82
67099;BME280;54288;53.046;5.668;2022-10-16T09:33:25;101435.88;;;16.14;84.92
67099;BME280;54288;53.046;5.668;2022-10-16T09:35:56;101443.13;;;16.33;84.14
67099;BME280;54288;53.046;5.668;2022-10-16T09:38:35;101443.03;;;16.61;83.45
67099;BME280;54288;53.046;5.668;2022-10-16T09:41:24;101450.88;;;16.64;82.75
67099;BME280;54288;53.046;5.668;2022-10-16T09:43:57;101448.56;;;16.55;82.80
67099;BME280;54288;53.046;5.668;2022-10-16T09:46:35;101452.97;;;16.54;82.23
67099;BME280;54288;53.046;5.668;2022-10-16T09:49:04;101452.63;;;16.88;82.07
67099;BME280;54288;53.046;5.668;2022-10-16T09:51:34;101450.09;;;17.08;80.18
67099;BME280;54288;53.046;5.668;2022-10-16T09:54:12;101480.84;;;17.35;79.51
67099;BME280;54288;53.046;5.668;2022-10-16T09:56:38;101474.06;;;17.28;78.90
67099;BME280;54288;53.046;5.668;2022-10-16T09:59:21;101453.69;;;17.53;76.44
67099;BME280;54288;53.046;5.668;2022-10-16T10:01:54;101473.81;;;18.00;75.00
67099;BME280;54288;53.046;5.668;2022-10-16T10:04:23;101470.63;;;18.13;69.23
67099;BME280;54288;53.046;5.668;2022-10-16T10:06:52;101479.03;;;18.03;70.37
67099;BME280;54288;53.046;5.668;2022-10-16T10:09:42;101472.84;;;18.24;67.89
67099;BME280;54288;53.046;5.668;2022-10-16T10:12:27;101486.69;;;18.30;65.46
67099;BME280;54288;53.046;5.668;2022-10-16T10:15:03;101492.38;;;18.43;65.28
67099;BME280;54288;53.046;5.668;2022-10-16T10:17:30;101491.78;;;18.15;64.31
67099;BME280;54288;53.046;5.668;2022-10-16T10:22:43;101513.25;;;17.87;64.82
67099;BME280;54288;53.046;5.668;2022-10-16T10:35:44;101535.53;;;18.25;64.21
67099;BME280;54288;53.046;5.668;2022-10-16T10:44:04;101546.69;;;17.90;64.53
67099;BME280;54288;53.046;5.668;2022-10-16T10:46:42;101546.81;;;18.08;63.28
67099;BME280;54288;53.046;5.668;2022-10-16T10:49:24;101569.44;;;18.17;63.84
67099;BME280;54288;53.046;5.668;2022-10-16T10:54:49;101565.16;;;18.14;64.05
67099;BME280;54288;53.046;5.668;2022-10-16T11:00:37;101568.47;;;18.19;63.32
67099;BME280;54288;53.046;5.668;2022-10-16T11:06:30;101566.31;;;18.29;61.46
67099;BME280;54288;53.046;5.668;2022-10-16T11:09:15;101558.09;;;18.13;60.77
67099;BME280;54288;53.046;5.668;2022-10-16T11:11:47;101568.91;;;18.09;61.29
67099;BME280;54288;53.046;5.668;2022-10-16T11:14:19;101562.56;;;18.13;62.14
67099;BME280;54288;53.046;5.668;2022-10-16T11:16:58;101579.19;;;17.95;62.45
67099;BME280;54288;53.046;5.668;2022-10-16T11:19:51;101588.63;;;18.02;63.96
67099;BME280;54288;53.046;5.668;2022-10-16T11:22:45;101572.53;;;18.28;62.38
67099;BME280;54288;53.046;5.668;2022-10-16T11:25:24;101588.22;;;18.34;62.93
67099;BME280;54288;53.046;5.668;2022-10-16T11:30:34;101587.16;;;17.95;62.26
67099;BME280;54288;53.046;5.668;2022-10-16T11:33:25;101591.31;;;18.00;61.84
67099;BME280;54288;53.046;5.668;2022-10-16T11:36:16;101591.28;;;18.02;62.49
67099;BME280;54288;53.046;5.668;2022-10-16T11:41:35;101595.97;;;17.72;62.18
67099;BME280;54288;53.046;5.668;2022-10-16T11:44:22;101603.38;;;17.63;62.53
67099;BME280;54288;53.046;5.668;2022-10-16T11:49:41;101601.63;;;17.63;63.25
67099;BME280;54288;53.046;5.668;2022-10-16T11:52:36;101609.34;;;17.69;60.91
67099;BME280;54288;53.046;5.668;2022-10-16T11:55:16;101615.09;;;17.57;62.04
67099;BME280;54288;53.046;5.668;2022-10-16T11:58:05;101622.72;;;17.65;61.83
67099;BME280;54288;53.046;5.668;2022-10-16T12:00:46;101629.19;;;17.58;60.26
67099;BME280;54288;53.046;5.668;2022-10-16T12:03:49;101639.44;;;17.44;62.06
67099;BME280;54288;53.046;5.668;2022-10-16T12:06:40;101648.53;;;17.35;63.37
67099;BME280;54288;53.046;5.668;2022-10-16T12:09:34;101648.97;;;17.23;63.75
67099;BME280;54288;53.046;5.668;2022-10-16T12:12:02;101652.28;;;17.04;64.37
67099;BME280;54288;53.046;5.668;2022-10-16T12:14:37;101662.28;;;16.94;66.23
67099;BME280;54288;53.046;5.668;2022-10-16T12:17:24;101652.84;;;16.87;63.78
67099;BME280;54288;53.046;5.668;2022-10-16T12:19:59;101648.72;;;16.79;65.96
67099;BME280;54288;53.046;5.668;2022-10-16T12:22:28;101661.84;;;16.82;65.72
67099;BME280;54288;53.046;5.668;2022-10-16T12:24:56;101665.06;;;16.91;66.81
67099;BME280;54288;53.046;5.668;2022-10-16T12:27:32;101666.50;;;16.74;65.55
67099;BME280;54288;53.046;5.668;2022-10-16T12:30:06;101664.91;;;16.70;66.44
67099;BME280;54288;53.046;5.668;2022-10-16T12:32:38;101667.56;;;16.70;66.92
67099;BME280;54288;53.046;5.668;2022-10-16T12:35:20;101676.38;;;16.69;67.72
67099;BME280;54288;53.046;5.668;2022-10-16T12:37:46;101670.41;;;16.64;67.81
67099;BME280;54288;53.046;5.668;2022-10-16T12:40:24;101657.84;;;16.43;67.22
67099;BME280;54288;53.046;5.668;2022-10-16T12:42:51;101672.78;;;16.44;67.89
67099;BME280;54288;53.046;5.668;2022-10-16T12:45:37;101665.94;;;16.38;67.73
67099;BME280;54288;53.046;5.668;2022-10-16T12:48:19;101676.50;;;16.38;68.95
67099;BME280;54288;53.046;5.668;2022-10-16T12:50:45;101682.72;;;16.36;68.86
67099;BME280;54288;53.046;5.668;2022-10-16T12:53:20;101680.97;;;16.35;67.80
67099;BME280;54288;53.046;5.668;2022-10-16T12:55:56;101689.63;;;16.41;68.24
67099;BME280;54288;53.046;5.668;2022-10-16T12:58:35;101692.78;;;16.52;65.88
67099;BME280;54288;53.046;5.668;2022-10-16T13:01:08;101683.63;;;16.64;65.85
67099;BME280;54288;53.046;5.668;2022-10-16T13:03:48;101686.06;;;16.70;65.85
67099;BME280;54288;53.046;5.668;2022-10-16T13:12:25;101704.34;;;17.03;63.28
67099;BME280;54288;53.046;5.668;2022-10-16T13:21:00;101702.97;;;16.64;64.31
67099;BME280;54288;53.046;5.668;2022-10-16T13:23:59;101707.88;;;16.49;65.44
67099;BME280;54288;53.046;5.668;2022-10-16T13:29:04;101707.44;;;16.90;65.58
67099;BME280;54288;53.046;5.668;2022-10-16T13:31:32;101701.09;;;16.95;64.72
67099;BME280;54288;53.046;5.668;2022-10-16T13:33:59;101725.97;;;17.16;64.36
67099;BME280;54288;53.046;5.668;2022-10-16T13:36:29;101711.41;;;17.03;64.96
67099;BME280;54288;53.046;5.668;2022-10-16T13:39:28;101718.25;;;17.10;65.43
67099;BME280;54288;53.046;5.668;2022-10-16T13:42:05;101715.94;;;16.99;64.82
67099;BME280;54288;53.046;5.668;2022-10-16T13:44:39;101743.84;;;17.09;65.99
67099;BME280;54288;53.046;5.668;2022-10-16T13:47:19;101738.59;;;17.08;64.75
67099;BME280;54288;53.046;5.668;2022-10-16T13:49:46;101745.59;;;17.09;65.83
67099;BME280;54288;53.046;5.668;2022-10-16T13:52:20;101737.88;;;17.03;64.75
67099;BME280;54288;53.046;5.668;2022-10-16T13:54:46;101733.44;;;17.03;66.13
67099;BME280;54288;53.046;5.668;2022-10-16T13:57:17;101735.13;;;17.06;65.45
67099;BME280;54288;53.046;5.668;2022-10-16T13:59:43;101745.03;;;16.99;65.36
67099;BME280;54288;53.046;5.668;2022-10-16T14:02:20;101721.75;;;16.84;65.33
67099;BME280;54288;53.046;5.668;2022-10-16T14:04:47;101740.63;;;17.00;66.41
67099;BME280;54288;53.046;5.668;2022-10-16T14:07:26;101748.72;;;16.95;66.45
67099;BME280;54288;53.046;5.668;2022-10-16T14:09:54;101757.28;;;16.76;65.19
67099;BME280;54288;53.046;5.668;2022-10-16T14:12:22;101750.00;;;16.55;66.42
67099;BME280;54288;53.046;5.668;2022-10-16T14:14:52;101750.53;;;16.37;67.41
67099;BME280;54288;53.046;5.668;2022-10-16T14:17:23;101774.31;;;16.37;68.14
67099;BME280;54288;53.046;5.668;2022-10-16T14:19:54;101770.97;;;16.30;68.69
67099;BME280;54288;53.046;5.668;2022-10-16T14:22:30;101783.28;;;16.31;68.10
67099;BME280;54288;53.046;5.668;2022-10-16T14:24:58;101780.97;;;16.21;69.26